Time;durP1;ratioP1;P1;durP2;ratioP2;P2;SDS_P1;SDS_P2;PMS_P1;PMS_P2;Temp;Humidity;BMP_temperature;BMP_pressure;BME280_temperature;BME280_humidity;BME280_pressure;Samples;Min_cycle;Max_cycle;Signal;HPM_P1;HPM_P2
2022/03/02 00:01:55;;;;;;;22.27;13.70;;;;;;;6.42;37.01;98234.78;5033194;28;20426;-71
2022/03/02 00:04:21;;;;;;;21.60;14.23;;;;;;;6.38;37.44;98238.50;5016028;28;20433;-72
2022/03/02 00:37:40;;;;;;;26.17;14.63;;;;;;;6.11;38.88;98210.72;5027943;28;20476;-72
2022/03/02 00:40:06;;;;;;;26.57;15.43;;;;;;;6.13;38.63;98216.66;5024036;28;20440;-73
2022/03/02 00:42:31;;;;;;;27.53;15.07;;;;;;;6.06;38.47;98225.78;5031268;28;20430;-72
2022/03/02 00:44:57;;;;;;;25.13;13.93;;;;;;;6.04;38.08;98232.88;5032305;28;20419;-72
2022/03/02 00:47:23;;;;;;;21.20;13.70;;;;;;;6.16;38.25;98226.88;5014912;28;20179;-72
2022/03/02 00:49:49;;;;;;;25.23;15.20;;;;;;;6.15;38.49;98223.44;5014508;28;20199;-71
2022/03/02 00:52:15;;;;;;;23.93;15.30;;;;;;;6.08;38.21;98219.56;5033031;28;20776;-71
2022/03/02 00:54:40;;;;;;;33.90;17.30;;;;;;;6.01;38.72;98215.69;5032058;28;20213;-70
2022/03/02 00:57:05;;;;;;;24.87;14.93;;;;;;;6.13;38.56;98214.06;5031879;28;20269;-72
2022/03/02 00:59:31;;;;;;;27.43;14.73;;;;;;;6.19;38.39;98213.66;5031950;28;20216;-70
2022/03/02 01:01:57;;;;;;;25.80;16.53;;;;;;;6.18;38.92;98201.56;5014698;28;20630;-72
2022/03/02 01:04:22;;;;;;;25.80;16.27;;;;;;;6.19;39.14;98200.63;5032188;28;20196;-72
2022/03/02 01:06:47;;;;;;;27.13;16.20;;;;;;;6.19;38.70;98197.22;5031929;28;20180;-71
2022/03/02 01:09:13;;;;;;;23.27;15.37;;;;;;;6.15;38.67;98202.59;5031660;28;20210;-71
2022/03/02 01:11:39;;;;;;;28.93;15.63;;;;;;;6.22;38.05;98200.44;5014217;28;20209;-72
2022/03/02 01:14:04;;;;;;;21.83;14.87;;;;;;;6.23;38.44;98199.50;5031001;28;20195;-73
2022/03/02 01:16:30;;;;;;;28.37;15.43;;;;;;;6.27;38.86;98193.19;5034183;28;20189;-73
2022/03/02 01:18:55;;;;;;;27.10;16.53;;;;;;;6.25;38.78;98189.84;5036434;28;20224;-72
2022/03/02 01:21:21;;;;;;;27.53;15.27;;;;;;;6.25;38.75;98197.66;5031321;28;20228;-72
2022/03/02 01:23:47;;;;;;;24.63;14.93;;;;;;;6.22;38.82;98189.22;5030515;28;20185;-69
2022/03/02 01:26:12;;;;;;;24.20;14.60;;;;;;;6.21;39.31;98190.97;5030322;28;20180;-70
2022/03/02 01:28:38;;;;;;;24.50;15.80;;;;;;;6.19;38.94;98192.81;5030508;28;20222;-70
2022/03/02 01:31:04;;;;;;;22.33;14.50;;;;;;;6.16;38.95;98195.66;5013159;28;20187;-71
2022/03/02 01:33:29;;;;;;;23.93;14.93;;;;;;;5.99;39.59;98189.75;5030503;28;20176;-70
2022/03/02 01:35:55;;;;;;;22.43;15.03;;;;;;;6.06;39.59;98187.59;5031194;28;20210;-69
2022/03/02 01:38:20;;;;;;;28.33;15.67;;;;;;;6.11;39.71;98190.72;5037428;28;20207;-72
2022/03/02 01:40:46;;;;;;;24.13;16.23;;;;;;;6.11;39.39;98176.88;5037753;28;20261;-71
2022/03/02 01:43:12;;;;;;;24.33;15.47;;;;;;;6.09;39.68;98174.38;5036830;28;20529;-73
2022/03/02 01:45:38;;;;;;;25.37;16.63;;;;;;;6.07;39.81;98170.19;5036451;28;20433;-72
2022/03/02 01:48:04;;;;;;;25.73;16.10;;;;;;;6.04;39.97;98173.84;5018890;28;20428;-72
2022/03/02 01:50:30;;;;;;;26.47;15.00;;;;;;;6.03;39.71;98164.38;5035587;28;20245;-72
2022/03/02 01:52:56;;;;;;;23.70;14.90;;;;;;;5.87;40.39;98164.50;5030948;28;20699;-71
2022/03/02 01:55:21;;;;;;;25.33;15.83;;;;;;;5.89;40.30;98159.19;5030304;28;20557;-71
2022/03/02 01:57:47;;;;;;;24.70;15.73;;;;;;;5.92;40.11;98165.03;5030775;28;20185;-71
2022/03/02 02:00:18;;;;;;;26.87;14.83;;;;;;;5.92;40.14;98159.81;4993787;28;20218;-71
2022/03/02 02:02:43;;;;;;;29.20;15.03;;;;;;;5.97;40.20;98156.94;5031069;28;20451;-72
2022/03/02 02:05:09;;;;;;;25.70;14.50;;;;;;;5.99;39.85;98144.63;5026843;28;20505;-72
2022/03/02 02:07:34;;;;;;;23.50;14.47;;;;;;;5.91;40.25;98139.97;5030821;28;20248;-72
2022/03/02 02:10:00;;;;;;;29.90;15.90;;;;;;;5.94;40.02;98144.13;5030305;28;20217;-71
2022/03/02 02:12:25;;;;;;;25.00;15.80;;;;;;;5.86;39.59;98126.41;5013390;28;20197;-70
2022/03/02 02:14:51;;;;;;;29.53;15.33;;;;;;;5.81;40.20;98129.31;5031217;28;20210;-72
2022/03/02 02:17:17;;;;;;;28.73;15.47;;;;;;;5.73;40.42;98120.31;5031821;28;20184;-72
2022/03/02 02:19:42;;;;;;;23.40;14.70;;;;;;;5.79;40.41;98125.16;5032801;28;20206;-72
2022/03/02 02:22:07;;;;;;;24.80;14.77;;;;;;;5.78;40.02;98123.47;5013681;28;20183;-74
2022/03/02 02:24:33;;;;;;;20.80;13.90;;;;;;;5.79;39.68;98119.94;5031832;28;20178;-71
2022/03/02 02:26:59;;;;;;;27.83;15.10;;;;;;;5.81;40.07;98118.06;5033040;28;21790;-71
2022/03/02 02:29:25;;;;;;;25.43;14.70;;;;;;;5.82;40.10;98114.53;4997678;28;20243;-73
2022/03/02 02:31:51;;;;;;;24.70;15.23;;;;;;;5.81;39.70;98112.84;5021000;28;20590;-72
2022/03/02 02:34:17;;;;;;;25.40;15.03;;;;;;;5.79;39.86;98106.94;5031142;28;20460;-72
2022/03/02 02:36:43;;;;;;;26.40;15.30;;;;;;;5.76;40.01;98102.75;5030997;28;20463;-71
2022/03/02 02:39:09;;;;;;;24.60;14.27;;;;;;;5.67;39.57;98093.75;5011603;28;20309;-71
2022/03/02 02:41:35;;;;;;;22.80;13.90;;;;;;;5.61;39.67;98091.56;5015253;28;20427;-72
2022/03/02 02:44:00;;;;;;;26.70;14.57;;;;;;;5.66;39.52;98089.53;5031956;28;20428;-71
2022/03/02 02:46:25;;;;;;;22.40;13.90;;;;;;;5.68;39.85;98082.44;5030079;28;20213;-71
2022/03/02 02:48:51;;;;;;;21.27;13.50;;;;;;;5.69;39.76;98081.50;5030419;28;20294;-72
2022/03/02 02:51:16;;;;;;;22.20;13.97;;;;;;;5.66;39.35;98088.69;5010641;28;20185;-72
2022/03/02 02:53:42;;;;;;;20.53;12.73;;;;;;;5.59;39.58;98095.22;5022008;28;20545;-72
2022/03/02 02:56:07;;;;;;;19.60;13.73;;;;;;;5.52;39.98;98097.38;5030113;28;20179;-72
2022/03/02 02:58:33;;;;;;;22.57;13.40;;;;;;;5.54;39.73;98103.31;5030092;28;20214;-72
2022/03/02 03:00:58;;;;;;;20.80;13.60;;;;;;;5.52;39.52;98105.19;4997715;28;20239;-72
2022/03/02 03:03:24;;;;;;;23.80;13.77;;;;;;;5.51;39.47;98104.34;4999881;28;20699;-71
2022/03/02 03:05:52;;;;;;;24.23;14.80;;;;;;;5.51;39.79;98109.53;5033320;28;20193;-72
2022/03/02 03:08:17;;;;;;;21.97;13.77;;;;;;;5.49;39.58;98107.97;5034110;28;20215;-71
2022/03/02 03:10:45;;;;;;;21.20;14.27;;;;;;;5.11;40.41;98098.22;5033488;28;20444;-72
2022/03/02 03:13:11;;;;;;;21.93;13.60;;;;;;;5.18;40.36;98099.50;5033972;28;20276;-73
2022/03/02 03:15:37;;;;;;;22.20;13.73;;;;;;;5.19;40.09;98095.97;5034622;28;20459;-73
2022/03/02 03:18:05;;;;;;;21.00;13.83;;;;;;;5.10;40.41;98091.38;5035001;28;20940;-73
2022/03/02 03:20:31;;;;;;;26.17;13.63;;;;;;;5.27;40.00;98100.69;4999182;28;20431;-73
2022/03/02 03:22:58;;;;;;;25.50;13.90;;;;;;;5.30;40.65;98103.94;4983715;28;20483;-72
2022/03/02 03:25:24;;;;;;;22.77;13.87;;;;;;;5.28;39.65;98100.63;4982606;28;20422;-71
2022/03/02 03:27:50;;;;;;;25.90;14.80;;;;;;;5.19;41.24;98102.03;4999288;28;20433;-73
2022/03/02 03:30:19;;;;;;;25.70;15.00;;;;;;;5.20;40.74;98097.66;4999106;28;20465;-72
2022/03/02 03:32:45;;;;;;;23.70;14.80;;;;;;;5.17;40.71;98096.09;4967175;28;20668;-72
2022/03/02 03:35:12;;;;;;;22.73;13.90;;;;;;;5.19;40.98;98093.38;4982205;28;20462;-72
2022/03/02 03:37:39;;;;;;;22.77;13.80;;;;;;;5.13;40.67;98080.78;4999383;28;20619;-72
2022/03/02 03:40:06;;;;;;;22.60;14.63;;;;;;;5.13;40.56;98081.59;4998936;28;20483;-71
2022/03/02 03:42:31;;;;;;;31.43;14.83;;;;;;;5.11;40.92;98080.03;5035507;28;20451;-73
2022/03/02 03:44:57;;;;;;;21.87;13.57;;;;;;;5.11;40.60;98085.25;5032677;28;20930;-72
2022/03/02 03:47:22;;;;;;;24.67;14.30;;;;;;;5.07;nan;98084.59;5033060;28;20183;-72
2022/03/02 03:49:48;;;;;;;25.77;13.57;;;;;;;5.04;40.64;98090.81;5032831;28;20700;-72
2022/03/02 03:52:13;;;;;;;21.90;14.00;;;;;;;4.99;41.07;98085.06;5032709;28;20185;-72
2022/03/02 03:54:39;;;;;;;21.10;13.37;;;;;;;5.04;40.70;98089.97;5032919;28;20253;-72
2022/03/02 03:57:05;;;;;;;24.83;13.50;;;;;;;4.98;41.57;98085.19;5032927;28;20218;-72
2022/03/02 03:59:31;;;;;;;20.03;12.53;;;;;;;5.00;41.15;98083.31;5032266;28;20213;-72
2022/03/02 04:01:56;;;;;;;20.60;13.50;;;;;;;4.98;41.14;98078.22;5033016;28;20918;-72
2022/03/02 04:04:22;;;;;;;22.70;13.53;;;;;;;5.02;41.22;98084.88;5032251;28;20182;-72
2022/03/02 04:06:47;;;;;;;20.63;12.70;;;;;;;5.02;40.75;98081.44;5032656;28;20229;-72
2022/03/02 04:09:13;;;;;;;20.70;11.97;;;;;;;4.95;40.95;98075.78;5014386;28;20200;-72
2022/03/02 04:11:38;;;;;;;19.30;12.90;;;;;;;4.97;40.64;98081.72;5032504;28;20188;-71
2022/03/02 04:14:04;;;;;;;20.70;13.30;;;;;;;4.96;39.86;98069.66;5014955;28;20205;-71
2022/03/02 04:16:29;;;;;;;22.17;13.00;;;;;;;4.89;40.43;98073.59;5032193;28;20174;-71
2022/03/02 04:18:55;;;;;;;20.33;12.93;;;;;;;4.88;41.02;98071.91;5032393;28;20553;-71
2022/03/02 04:21:20;;;;;;;19.00;12.90;;;;;;;4.89;40.92;98068.41;5032284;28;20189;-71
2022/03/02 04:23:46;;;;;;;24.60;12.87;;;;;;;4.81;41.19;98065.41;5032275;28;20197;-72
2022/03/02 04:26:13;;;;;;;21.23;13.53;;;;;;;4.78;40.58;98066.44;5014629;28;20207;-73
2022/03/02 04:28:38;;;;;;;20.00;12.70;;;;;;;4.87;40.70;98073.66;5032041;28;20210;-71
2022/03/02 04:31:04;;;;;;;21.50;12.83;;;;;;;4.70;41.13;98059.13;5032565;28;20422;-73
2022/03/02 04:33:30;;;;;;;22.57;12.30;;;;;;;4.64;41.33;98054.31;5032219;28;20237;-71
2022/03/02 04:35:55;;;;;;;20.03;13.10;;;;;;;4.74;41.28;98054.56;5033658;28;20211;-70
2022/03/02 04:38:21;;;;;;;20.27;12.63;;;;;;;4.83;41.09;98053.19;5032049;28;20612;-71
2022/03/02 04:40:46;;;;;;;27.43;13.10;;;;;;;4.76;41.29;98047.53;5032336;28;20186;-70
2022/03/02 04:43:12;;;;;;;19.43;13.30;;;;;;;4.75;41.35;98036.31;5031581;28;20203;-73
2022/03/02 04:45:38;;;;;;;19.20;12.50;;;;;;;4.76;41.36;98038.00;5031404;28;20262;-72
2022/03/02 04:48:04;;;;;;;21.00;12.90;;;;;;;4.65;41.53;98032.63;5032036;28;20451;-71
2022/03/02 04:50:29;;;;;;;23.73;13.20;;;;;;;4.73;41.34;98026.94;5031583;28;20181;-72
2022/03/02 04:52:56;;;;;;;22.70;12.40;;;;;;;4.80;41.04;98033.44;5032097;28;20245;-72
2022/03/02 04:55:22;;;;;;;19.27;12.60;;;;;;;4.83;41.29;98024.59;5022429;28;20220;-72
2022/03/02 04:57:53;;;;;;;23.90;13.83;;;;;;;4.84;40.77;98029.72;5027066;28;20436;-71
2022/03/02 05:00:20;;;;;;;18.27;12.47;;;;;;;4.82;41.13;98028.97;5031868;28;20501;-71
2022/03/02 05:02:46;;;;;;;21.70;13.63;;;;;;;4.86;40.25;98032.22;5031112;28;20889;-70
2022/03/02 05:05:14;;;;;;;19.27;11.87;;;;;;;4.83;40.91;98028.06;5031261;28;20434;-71
2022/03/02 05:07:42;;;;;;;19.07;12.20;;;;;;;4.86;40.79;98032.22;5032256;28;20243;-70
2022/03/02 05:10:08;;;;;;;19.70;12.40;;;;;;;4.85;41.05;98020.97;5032241;28;20553;-72
2022/03/02 05:12:34;;;;;;;22.93;13.23;;;;;;;4.58;41.58;98024.38;5031565;28;20431;-71
2022/03/02 05:14:59;;;;;;;21.40;13.30;;;;;;;4.66;41.79;98015.28;5031900;28;20492;-70
2022/03/02 05:17:25;;;;;;;20.30;11.87;;;;;;;4.65;41.20;98022.25;5031758;28;20348;-70
2022/03/02 05:19:50;;;;;;;22.40;12.97;;;;;;;4.63;41.49;98023.25;5031974;28;20625;-70
2022/03/02 05:22:16;;;;;;;23.10;13.33;;;;;;;4.63;40.88;98013.72;5031579;28;20211;-70
2022/03/02 05:24:42;;;;;;;20.93;13.50;;;;;;;4.68;40.26;98018.59;5031262;28;20180;-72
2022/03/02 05:27:08;;;;;;;19.60;12.67;;;;;;;4.53;40.59;98025.59;5013140;28;20192;-73
2022/03/02 05:29:34;;;;;;;20.23;12.60;;;;;;;4.52;40.38;98021.31;5030980;28;20227;-71
2022/03/02 05:32:00;;;;;;;23.20;13.33;;;;;;;4.46;41.26;98025.94;5030551;28;20932;-71
2022/03/02 05:34:25;;;;;;;19.50;13.20;;;;;;;4.66;41.39;98023.91;5012544;28;20512;-72
2022/03/02 05:36:51;;;;;;;20.27;12.63;;;;;;;4.68;40.57;98024.63;5030278;28;20188;-73
2022/03/02 05:39:16;;;;;;;22.93;13.63;;;;;;;4.59;40.59;98022.59;5030186;28;20677;-72
2022/03/02 05:41:42;;;;;;;25.33;13.77;;;;;;;4.63;40.45;98024.09;5031030;28;20185;-70
2022/03/02 05:44:11;;;;;;;21.90;13.50;;;;;;;4.71;40.10;98016.66;5030635;28;20551;-73
2022/03/02 05:46:37;;;;;;;24.97;13.97;;;;;;;4.72;40.75;98017.50;5012776;28;20185;-72
2022/03/02 05:49:04;;;;;;;22.00;13.70;;;;;;;4.74;41.09;98020.81;5032569;28;20495;-71
2022/03/02 05:51:30;;;;;;;23.87;14.40;;;;;;;4.82;40.99;98015.13;5012491;28;20184;-72
2022/03/02 05:53:58;;;;;;;20.43;13.53;;;;;;;4.79;40.62;98015.34;5013054;28;20485;-72
2022/03/02 05:56:25;;;;;;;22.57;14.27;;;;;;;4.80;40.39;98012.66;5029430;28;20528;-72
2022/03/02 05:58:51;;;;;;;30.17;15.60;;;;;;;4.79;40.98;98016.19;5029767;28;20462;-71
2022/03/02 06:01:17;;;;;;;28.93;16.07;;;;;;;4.90;40.32;98010.31;5030429;28;20457;-72
2022/03/02 06:03:43;;;;;;;22.07;13.43;;;;;;;4.93;40.68;98010.09;5030374;28;20423;-71
2022/03/02 06:06:08;;;;;;;21.77;13.50;;;;;;;4.90;40.99;98015.50;5030240;28;20188;-72
2022/03/02 06:08:34;;;;;;;26.97;15.33;;;;;;;4.96;40.67;98006.50;5012633;28;20475;-72
2022/03/02 06:10:59;;;;;;;24.57;15.10;;;;;;;4.91;40.49;98009.38;5030157;28;20221;-71
2022/03/02 06:13:25;;;;;;;26.77;14.00;;;;;;;4.96;40.43;98004.72;5029684;28;20193;-71
2022/03/02 06:15:51;;;;;;;26.43;14.90;;;;;;;5.01;40.63;98005.28;5030407;28;20659;-72
2022/03/02 06:18:16;;;;;;;22.47;14.37;;;;;;;5.08;40.73;98003.13;5029203;28;20225;-71
2022/03/02 06:20:42;;;;;;;23.60;14.50;;;;;;;5.07;41.00;98012.66;5031079;28;20654;-71
2022/03/02 06:23:08;;;;;;;23.10;14.80;;;;;;;5.10;40.26;98003.00;5030555;28;20180;-71
2022/03/02 06:25:34;;;;;;;25.60;14.60;;;;;;;5.06;40.29;97992.81;5031857;28;20427;-71
2022/03/02 06:27:59;;;;;;;24.17;14.57;;;;;;;5.03;40.78;97987.81;5013704;28;20182;-71
2022/03/02 06:30:25;;;;;;;33.43;15.47;;;;;;;4.86;41.36;97993.25;5030420;28;20243;-72
2022/03/02 06:32:50;;;;;;;25.60;15.27;;;;;;;4.88;41.12;97991.41;5030120;28;20728;-71
2022/03/02 06:35:16;;;;;;;22.53;14.60;;;;;;;4.88;41.83;97992.22;5035806;28;20243;-72
2022/03/02 06:37:41;;;;;;;25.40;15.20;;;;;;;5.05;41.46;98000.72;5039344;28;20534;-72
2022/03/02 06:40:10;;;;;;;29.90;18.77;;;;;;;5.07;41.21;98001.44;5035446;28;20203;-72
2022/03/02 06:42:59;;;;;;;30.23;16.47;;;;;;;5.18;41.09;98000.75;5026383;28;20188;-71
2022/03/02 06:45:46;;;;;;;26.90;16.03;;;;;;;5.29;40.54;98006.09;5033761;28;20432;-71
2022/03/02 06:48:13;;;;;;;23.03;14.33;;;;;;;5.37;40.58;98010.78;5033697;28;20497;-72
2022/03/02 06:50:43;;;;;;;27.80;16.93;;;;;;;5.38;41.19;98005.50;5015833;28;20858;-72
2022/03/02 06:53:12;;;;;;;28.63;16.30;;;;;;;5.42;41.90;98015.72;5033780;28;20856;-72
2022/03/02 06:55:40;;;;;;;26.80;16.50;;;;;;;5.38;40.66;98013.31;5015254;28;20492;-73
2022/03/02 06:58:08;;;;;;;26.00;16.30;;;;;;;4.99;42.05;98004.53;5035690;28;20573;-73
2022/03/02 07:00:34;;;;;;;24.23;14.90;;;;;;;4.97;43.03;98002.97;5031110;28;20493;-72
2022/03/02 07:03:10;;;;;;;31.93;15.80;;;;;;;5.24;42.65;98010.75;5038930;28;20463;-73
2022/03/02 07:05:39;;;;;;;26.60;16.37;;;;;;;5.38;42.46;98004.66;5028170;28;20197;-71
2022/03/02 07:08:05;;;;;;;27.37;15.50;;;;;;;5.47;42.13;98005.81;5038604;28;20429;-70
2022/03/02 07:10:33;;;;;;;27.70;16.97;;;;;;;5.04;42.78;98009.44;5035538;28;20451;-71
2022/03/02 07:13:00;;;;;;;27.90;16.37;;;;;;;5.21;43.32;98017.00;5035682;28;20516;-70
2022/03/02 07:15:25;;;;;;;24.90;16.20;;;;;;;5.44;42.57;98016.41;5033466;28;20460;-71
2022/03/02 07:17:51;;;;;;;27.20;16.03;;;;;;;5.58;42.38;98018.13;5034224;28;20908;-71
2022/03/02 07:20:17;;;;;;;31.23;18.10;;;;;;;5.72;41.46;98012.84;5033458;28;20204;-71
2022/03/02 07:22:49;;;;;;;58.17;16.40;;;;;;;5.79;41.25;98018.47;5033890;28;20913;-69
2022/03/02 07:25:35;;;;;;;28.33;15.60;;;;;;;5.79;41.45;98028.88;5015140;28;20289;-71
2022/03/02 07:28:02;;;;;;;27.27;15.90;;;;;;;5.86;41.77;98027.53;5033733;28;20461;-72
2022/03/02 07:30:28;;;;;;;26.60;16.00;;;;;;;5.88;41.20;98015.25;5032959;28;20911;-71
2022/03/02 07:32:55;;;;;;;30.13;16.03;;;;;;;5.84;41.47;98009.44;5034004;28;20457;-73
2022/03/02 07:35:22;;;;;;;29.07;17.17;;;;;;;5.91;41.55;98015.06;5032571;28;20500;-72
2022/03/02 07:37:48;;;;;;;27.90;17.17;;;;;;;5.89;41.38;98018.69;5033544;28;20993;-72
2022/03/02 07:40:14;;;;;;;27.93;17.17;;;;;;;5.82;41.19;98019.09;5033640;28;20442;-71
2022/03/02 07:42:40;;;;;;;31.20;17.57;;;;;;;5.90;40.90;98009.94;5033329;28;20206;-72
2022/03/02 07:45:06;;;;;;;30.97;18.47;;;;;;;6.03;40.33;98010.00;5033327;28;20452;-71
2022/03/02 07:47:32;;;;;;;26.27;14.90;;;;;;;6.10;40.18;98013.84;5013637;28;20396;-71
2022/03/02 07:49:58;;;;;;;33.70;15.93;;;;;;;6.15;39.91;98006.56;5033189;28;20448;-71
2022/03/02 07:52:29;;;;;;;27.10;15.77;;;;;;;6.13;39.68;98011.84;5033263;28;20860;-71
2022/03/02 07:55:03;;;;;;;28.33;16.33;;;;;;;6.24;39.35;98018.94;5034887;28;20620;-71
2022/03/02 07:57:30;;;;;;;26.20;15.33;;;;;;;6.24;40.42;98016.34;5033002;28;20428;-70
2022/03/02 07:59:58;;;;;;;27.40;16.60;;;;;;;6.30;39.29;98015.91;5032572;28;20550;-72
2022/03/02 08:02:24;;;;;;;35.97;17.07;;;;;;;6.28;39.53;98011.75;5015174;28;20488;-71
2022/03/02 08:04:53;;;;;;;27.87;16.93;;;;;;;6.28;39.33;98014.34;5031702;28;20461;-71
2022/03/02 08:07:19;;;;;;;29.27;16.40;;;;;;;6.26;39.58;98005.81;5033260;28;20881;-72
2022/03/02 08:09:44;;;;;;;29.97;15.30;;;;;;;6.19;38.98;98009.78;5014929;28;20492;-71
2022/03/02 08:12:11;;;;;;;25.33;16.30;;;;;;;6.30;39.10;98010.69;5032944;28;20191;-73
2022/03/02 08:14:36;;;;;;;27.10;15.93;;;;;;;6.57;39.59;98019.31;5032106;28;20241;-74
2022/03/02 08:17:03;;;;;;;30.67;17.27;;;;;;;6.59;40.42;98015.66;5032461;28;20524;-72
2022/03/02 08:19:30;;;;;;;29.60;17.90;;;;;;;6.74;40.05;98018.13;5022854;28;20196;-72
2022/03/02 08:22:05;;;;;;;32.57;17.27;;;;;;;6.96;39.44;98029.63;5026153;28;20442;-73
2022/03/02 08:24:31;;;;;;;25.63;16.50;;;;;;;7.05;39.55;98026.38;5028113;28;20428;-73
2022/03/02 08:26:59;;;;;;;32.60;17.30;;;;;;;7.16;38.90;98025.59;5030725;28;20424;-71
2022/03/02 08:29:26;;;;;;;42.73;18.23;;;;;;;7.27;39.17;98030.06;5014758;28;20459;-70
2022/03/02 08:31:54;;;;;;;38.43;17.07;;;;;;;7.30;38.79;98029.84;5012592;28;20930;-73
2022/03/02 08:34:19;;;;;;;28.30;17.70;;;;;;;7.40;39.07;98016.94;5031310;28;20512;-72
2022/03/02 08:36:44;;;;;;;33.07;18.40;;;;;;;7.20;38.35;98019.22;5012773;28;20437;-72
2022/03/02 08:39:12;;;;;;;40.87;17.27;;;;;;;7.30;38.26;98008.97;5012961;28;20592;-72
2022/03/02 08:41:39;;;;;;;27.67;17.37;;;;;;;7.34;37.79;98013.00;5003219;28;20183;-70
2022/03/02 08:44:07;;;;;;;27.00;17.23;;;;;;;7.41;37.62;98005.56;5020636;28;20968;-72
2022/03/02 08:46:32;;;;;;;30.60;16.30;;;;;;;7.39;37.38;98008.28;5022256;28;20560;-72
2022/03/02 08:48:58;;;;;;;31.03;17.40;;;;;;;7.48;37.82;98007.59;5024716;28;20893;-73
2022/03/02 08:51:25;;;;;;;34.47;17.03;;;;;;;7.60;38.26;98000.66;5030519;28;20221;-71
2022/03/02 08:53:53;;;;;;;34.60;16.97;;;;;;;7.61;37.77;97997.13;5030696;28;20236;-72
2022/03/02 08:56:19;;;;;;;34.33;18.07;;;;;;;7.73;37.88;98000.56;5028981;28;21079;-72
2022/03/02 08:58:45;;;;;;;32.10;17.70;;;;;;;7.74;37.49;98002.22;5031351;28;20476;-73
2022/03/02 09:01:12;;;;;;;32.40;17.90;;;;;;;7.84;37.13;97987.53;5027429;28;21175;-72
2022/03/02 09:03:45;;;;;;;35.00;18.53;;;;;;;7.80;37.61;97982.66;5013225;28;20273;-72
2022/03/02 09:06:11;;;;;;;32.03;18.27;;;;;;;7.80;37.12;97983.53;5013043;28;20440;-73
2022/03/02 09:08:38;;;;;;;31.20;17.43;;;;;;;7.85;37.64;97983.16;5001597;28;20550;-73
2022/03/02 09:11:04;;;;;;;37.97;17.77;;;;;;;7.93;36.95;97980.78;5006648;28;20446;-70
2022/03/02 09:13:29;;;;;;;27.93;18.03;;;;;;;8.08;37.10;97989.22;5028547;28;21236;-72
2022/03/02 09:15:56;;;;;;;29.67;17.87;;;;;;;8.23;36.85;97981.16;5024595;28;20243;-71
2022/03/02 09:18:21;;;;;;;35.43;17.73;;;;;;;8.39;36.94;97983.41;5029465;28;20207;-71
2022/03/02 09:20:51;;;;;;;32.93;19.00;;;;;;;8.57;36.78;97983.78;5030569;28;20450;-71
2022/03/02 09:23:16;;;;;;;37.43;19.00;;;;;;;8.79;36.39;97988.16;5012225;28;20558;-73
2022/03/02 09:25:42;;;;;;;39.03;19.10;;;;;;;9.00;36.43;97993.47;5006540;28;20434;-72
2022/03/02 09:28:09;;;;;;;33.00;18.20;;;;;;;9.24;36.44;97986.41;5012820;28;20188;-72
2022/03/02 09:30:36;;;;;;;40.10;17.33;;;;;;;9.28;35.25;97988.63;5030882;28;20433;-73
2022/03/02 09:33:02;;;;;;;47.07;18.50;;;;;;;9.34;35.00;97982.88;5013309;28;20431;-73
2022/03/02 09:35:27;;;;;;;35.03;16.63;;;;;;;9.33;34.65;97980.41;5029677;28;20509;-73
2022/03/02 09:37:54;;;;;;;30.00;16.60;;;;;;;9.34;34.62;97980.25;4996800;28;20182;-72
2022/03/02 09:40:28;;;;;;;31.70;17.20;;;;;;;9.34;34.63;97977.66;5030328;28;20550;-72
2022/03/02 09:43:07;;;;;;;29.27;16.40;;;;;;;9.21;33.96;97970.00;5031334;28;20425;-71
2022/03/02 09:45:34;;;;;;;28.60;15.40;;;;;;;9.33;33.53;97970.75;5022928;28;20787;-72
2022/03/02 09:48:03;;;;;;;28.63;15.63;;;;;;;9.38;33.34;97978.25;5013820;28;20430;-72
2022/03/02 09:50:36;;;;;;;27.47;16.20;;;;;;;9.41;33.71;97974.53;5024499;28;20479;-73
2022/03/02 09:53:03;;;;;;;21.40;15.27;;;;;;;9.37;32.67;97974.78;5013017;28;20429;-71
2022/03/02 09:55:30;;;;;;;30.27;17.13;;;;;;;9.37;33.26;97971.34;5019623;28;20539;-72
2022/03/02 09:57:59;;;;;;;29.00;16.70;;;;;;;9.64;32.39;97970.03;5025845;28;20426;-73
2022/03/02 10:00:26;;;;;;;22.63;15.60;;;;;;;9.85;32.13;97964.78;5031051;28;20990;-72
2022/03/02 10:02:55;;;;;;;24.13;15.23;;;;;;;9.98;31.82;97972.44;5031078;28;21027;-73
2022/03/02 10:05:23;;;;;;;31.40;15.03;;;;;;;10.08;31.88;97969.88;5030621;28;20589;-72
2022/03/02 10:07:58;;;;;;;22.40;14.93;;;;;;;10.19;31.78;97977.66;5013082;28;20458;-72
2022/03/02 10:10:24;;;;;;;23.50;14.87;;;;;;;10.30;31.35;97974.09;5033769;28;20460;-73
2022/03/02 10:12:55;;;;;;;24.57;15.40;;;;;;;10.29;31.86;97965.41;5028274;28;20419;-72
2022/03/02 10:15:20;;;;;;;26.83;15.83;;;;;;;10.63;31.98;97963.47;5028709;28;20554;-73
2022/03/02 10:17:48;;;;;;;38.43;16.30;;;;;;;10.85;32.19;97960.63;5037299;28;20997;-72
2022/03/02 10:20:27;;;;;;;27.90;14.53;;;;;;;11.05;30.08;97958.84;5019581;28;20226;-72
2022/03/02 10:23:14;;;;;;;21.50;15.00;;;;;;;11.24;29.87;97959.00;5019323;28;20427;-72
2022/03/02 10:26:04;;;;;;;22.80;14.10;;;;;;;11.33;29.16;97958.19;5029532;28;20418;-74
2022/03/02 10:28:52;;;;;;;21.43;14.47;;;;;;;11.14;29.09;97957.22;5038453;28;20446;-74
2022/03/02 10:31:27;;;;;;;21.40;13.83;;;;;;;10.86;29.62;97956.22;5028260;28;20875;-73
2022/03/02 10:33:56;;;;;;;23.37;15.33;;;;;;;10.87;29.65;97966.56;5036131;28;20424;-74
2022/03/02 10:36:25;;;;;;;22.60;13.80;;;;;;;10.86;29.36;97958.84;5035986;28;20433;-73
2022/03/02 10:38:59;;;;;;;25.73;15.23;;;;;;;11.02;29.88;97953.91;5037175;28;20966;-72
2022/03/02 10:41:29;;;;;;;19.17;14.13;;;;;;;11.20;29.93;97961.06;5037075;28;20517;-74
2022/03/02 10:44:09;;;;;;;18.40;12.63;;;;;;;11.29;29.44;97944.50;5019754;28;20423;-72
2022/03/02 10:46:40;;;;;;;18.43;12.50;;;;;;;11.33;28.62;97939.81;5028528;28;20433;-72
2022/03/02 10:49:20;;;;;;;29.30;14.17;;;;;;;11.18;28.98;97942.84;5036701;28;20515;-73
2022/03/02 10:51:46;;;;;;;21.67;14.00;;;;;;;11.18;28.86;97931.50;5031005;28;20422;-72
2022/03/02 10:54:16;;;;;;;18.30;12.87;;;;;;;11.20;29.06;97935.69;5036965;28;20458;-72
2022/03/02 10:56:43;;;;;;;24.97;14.10;;;;;;;11.06;28.80;97923.78;5037627;28;20457;-73
2022/03/02 10:59:16;;;;;;;24.13;14.60;;;;;;;11.05;29.07;97921.31;5037622;28;20434;-73
2022/03/02 11:01:45;;;;;;;23.13;14.63;;;;;;;10.99;29.29;97924.47;5037124;28;20469;-73
2022/03/02 11:04:11;;;;;;;24.43;15.77;;;;;;;11.03;29.30;97928.47;5036943;28;20434;-75
2022/03/02 11:06:37;;;;;;;26.77;14.87;;;;;;;11.12;29.55;97917.16;5015876;28;20858;-75
2022/03/02 11:09:04;;;;;;;24.17;14.90;;;;;;;11.08;29.52;97915.78;5019069;28;20571;-74
2022/03/02 11:11:32;;;;;;;22.07;15.17;;;;;;;11.01;29.44;97906.81;5036812;28;20956;-74
2022/03/02 11:13:58;;;;;;;31.50;13.93;;;;;;;10.97;29.55;97908.03;5037193;28;20428;-73
2022/03/02 11:16:25;;;;;;;20.10;13.93;;;;;;;11.03;29.43;97913.56;5041891;28;20524;-73
2022/03/02 11:18:52;;;;;;;23.00;14.07;;;;;;;11.12;29.29;97909.28;5018919;28;20210;-73
2022/03/02 11:21:39;;;;;;;19.47;13.73;;;;;;;11.25;29.12;97913.41;5033934;28;20420;-74
2022/03/02 11:24:05;;;;;;;19.50;13.93;;;;;;;11.35;29.25;97901.97;5033810;28;20420;-73
2022/03/02 11:26:34;;;;;;;19.87;12.80;;;;;;;11.33;29.29;97889.97;5025001;28;20432;-73
2022/03/02 11:29:11;;;;;;;23.20;14.10;;;;;;;11.45;29.24;97888.84;5033152;28;20437;-71
2022/03/02 11:31:46;;;;;;;23.20;14.80;;;;;;;11.57;28.65;97889.47;5026510;28;20498;-72
2022/03/02 11:34:20;;;;;;;20.20;13.27;;;;;;;11.77;28.90;97881.56;5033521;28;20461;-72
2022/03/02 11:36:50;;;;;;;20.80;14.00;;;;;;;11.93;28.58;97876.50;5031347;28;20523;-74
2022/03/02 11:39:20;;;;;;;19.77;12.47;;;;;;;11.99;28.13;97877.75;5032843;28;20532;-72
2022/03/02 11:41:49;;;;;;;18.67;13.17;;;;;;;12.03;27.98;97876.50;5033655;28;20911;-73
2022/03/02 11:44:29;;;;;;;19.77;13.17;;;;;;;11.89;27.39;97884.81;5031635;28;20836;-73
2022/03/02 11:46:55;;;;;;;18.57;13.33;;;;;;;11.98;27.62;97876.94;5027896;28;20410;-72
2022/03/02 11:49:21;;;;;;;15.87;12.20;;;;;;;12.00;27.39;97879.41;5015339;28;20438;-73
2022/03/02 11:52:04;;;;;;;20.47;13.73;;;;;;;12.03;27.12;97868.63;5036355;28;20501;-72
2022/03/02 11:54:43;;;;;;;18.53;13.20;;;;;;;11.90;27.09;97863.69;5033361;28;20199;-74
2022/03/02 11:57:08;;;;;;;21.93;13.90;;;;;;;11.91;27.22;97869.75;5024747;28;20557;-71